Time;durP1;ratioP1;P1;durP2;ratioP2;P2;SDS_P1;SDS_P2;PMS_P1;PMS_P2;Temp;Humidity;BMP_temperature;BMP_pressure;BME280_temperature;BME280_humidity;BME280_pressure;Samples;Min_cycle;Max_cycle;Signal;HPM_P1;HPM_P2
2023/10/10 00:01:03;;;;;;;8.13;8.03;;;12.20;99.90;;;;;;5099758;28;20511;-68
2023/10/10 00:03:34;;;;;;;8.20;8.10;;;12.20;99.90;;;;;;5095390;28;20457;-67
2023/10/10 00:06:06;;;;;;;8.47;8.37;;;12.30;99.90;;;;;;5108001;28;20448;-66
2023/10/10 00:08:36;;;;;;;7.83;7.73;;;12.40;99.90;;;;;;5110506;28;20453;-67
2023/10/10 00:11:09;;;;;;;7.47;7.37;;;12.40;99.90;;;;;;5094529;28;21162;-68
2023/10/10 00:13:42;;;;;;;6.70;6.60;;;12.40;99.90;;;;;;5102713;28;20833;-67
2023/10/10 00:16:09;;;;;;;7.20;7.10;;;12.30;99.90;;;;;;5096129;28;20474;-67
2023/10/10 00:18:43;;;;;;;7.37;7.27;;;12.30;99.90;;;;;;5108206;28;20456;-67
2023/10/10 00:21:12;;;;;;;7.50;7.40;;;12.30;99.90;;;;;;5100649;28;20526;-66
2023/10/10 00:23:47;;;;;;;7.30;7.20;;;12.30;99.90;;;;;;5099840;28;20465;-66
2023/10/10 00:26:14;;;;;;;8.10;8.00;;;12.30;99.90;;;;;;5105025;28;20461;-67
2023/10/10 00:28:45;;;;;;;8.37;8.27;;;12.20;99.90;;;;;;5110800;28;20540;-66
2023/10/10 00:31:17;;;;;;;8.30;8.20;;;12.20;99.90;;;;;;5102268;28;20867;-67
2023/10/10 00:33:49;;;;;;;8.13;8.03;;;12.20;99.90;;;;;;5098379;28;20669;-68
2023/10/10 00:36:21;;;;;;;7.10;7.00;;;12.20;99.90;;;;;;5103372;28;20450;-66
2023/10/10 00:38:50;;;;;;;7.73;7.63;;;12.20;99.90;;;;;;5100150;28;20495;-67
2023/10/10 00:41:17;;;;;;;7.30;7.20;;;12.10;99.90;;;;;;5105017;28;20956;-67
2023/10/10 00:43:43;;;;;;;7.50;7.40;;;12.10;99.90;;;;;;5099868;28;20571;-67
2023/10/10 00:46:11;;;;;;;8.00;7.90;;;12.10;99.90;;;;;;5097505;28;21049;-67
2023/10/10 00:48:39;;;;;;;7.67;7.57;;;12.00;99.90;;;;;;5101901;28;20651;-67
2023/10/10 00:51:11;;;;;;;8.20;8.10;;;12.10;99.90;;;;;;5094071;28;20465;-67
2023/10/10 00:53:40;;;;;;;7.30;7.20;;;12.10;99.90;;;;;;5098902;28;20498;-67
2023/10/10 00:56:08;;;;;;;7.40;7.30;;;12.10;99.90;;;;;;5101940;28;20473;-67
2023/10/10 00:58:39;;;;;;;7.87;7.77;;;12.20;99.90;;;;;;5096555;28;20500;-66
2023/10/10 01:01:09;;;;;;;7.70;7.60;;;12.20;99.90;;;;;;5101902;28;20472;-68
2023/10/10 01:03:40;;;;;;;7.00;6.90;;;12.20;99.90;;;;;;5094714;28;20466;-66
2023/10/10 01:06:20;;;;;;;7.53;7.43;;;12.10;99.90;;;;;;5095106;28;21096;-67
2023/10/10 01:08:59;;;;;;;7.80;7.70;;;12.10;99.90;;;;;;5102273;28;20465;-67
2023/10/10 01:11:29;;;;;;;8.20;8.10;;;12.20;99.90;;;;;;5094390;28;20824;-67
2023/10/10 01:13:56;;;;;;;7.77;7.67;;;12.30;99.90;;;;;;5105074;28;20563;-66
2023/10/10 01:16:25;;;;;;;6.70;6.60;;;12.40;99.90;;;;;;5094454;28;20492;-67
2023/10/10 01:18:57;;;;;;;7.10;7.00;;;12.40;99.90;;;;;;5090244;28;20508;-66
2023/10/10 01:21:30;;;;;;;7.07;6.97;;;12.50;99.90;;;;;;5091431;28;20881;-67
2023/10/10 01:24:06;;;;;;;6.70;6.60;;;12.40;99.90;;;;;;5088215;28;20458;-67
2023/10/10 01:26:37;;;;;;;7.53;7.43;;;12.30;99.90;;;;;;5096118;28;20869;-67
2023/10/10 01:29:18;;;;;;;7.37;7.27;;;12.30;99.90;;;;;;5097262;28;20860;-67
2023/10/10 01:31:45;;;;;;;7.20;7.10;;;12.20;99.90;;;;;;5097662;28;20446;-67
2023/10/10 01:34:30;;;;;;;7.47;7.37;;;12.20;99.90;;;;;;5093884;28;20579;-66
2023/10/10 01:37:07;;;;;;;7.60;7.50;;;12.20;99.90;;;;;;5100334;28;20508;-67
2023/10/10 01:39:47;;;;;;;8.30;8.20;;;12.20;99.90;;;;;;5098133;28;20510;-67
2023/10/10 01:42:16;;;;;;;8.20;8.10;;;12.20;99.90;;;;;;5089239;28;20554;-66
2023/10/10 01:44:44;;;;;;;8.07;7.97;;;12.10;99.90;;;;;;5087890;28;20457;-68
2023/10/10 01:47:18;;;;;;;8.20;8.10;;;12.10;99.90;;;;;;5089365;28;20454;-66
2023/10/10 01:49:46;;;;;;;8.83;8.73;;;12.00;99.90;;;;;;5096701;28;20540;-66
2023/10/10 01:52:17;;;;;;;7.80;7.70;;;12.00;99.90;;;;;;5095828;28;20955;-66
2023/10/10 01:54:52;;;;;;;8.03;7.93;;;12.00;99.90;;;;;;5095209;28;20538;-67
2023/10/10 01:57:22;;;;;;;7.67;7.57;;;12.00;99.90;;;;;;5095979;28;20453;-67
2023/10/10 01:59:51;;;;;;;8.20;8.10;;;12.00;99.90;;;;;;5101542;28;20821;-66
2023/10/10 02:02:23;;;;;;;7.67;7.57;;;12.10;99.90;;;;;;5102857;28;20454;-66
2023/10/10 02:04:52;;;;;;;7.70;7.60;;;12.10;99.90;;;;;;5092682;28;20551;-66
2023/10/10 02:07:23;;;;;;;7.27;7.17;;;12.10;99.90;;;;;;5097119;28;20461;-66
2023/10/10 02:10:00;;;;;;;7.97;7.87;;;12.00;99.90;;;;;;5095376;28;20856;-66
2023/10/10 02:12:28;;;;;;;7.73;7.63;;;11.90;99.90;;;;;;5094680;28;20474;-65
2023/10/10 02:14:58;;;;;;;7.43;7.33;;;11.90;99.90;;;;;;5101076;28;20467;-67
2023/10/10 02:17:26;;;;;;;7.87;7.77;;;11.90;99.90;;;;;;5096021;28;20469;-67
2023/10/10 02:19:58;;;;;;;7.60;7.50;;;11.80;99.90;;;;;;5105976;28;20537;-66
2023/10/10 02:22:33;;;;;;;8.47;8.37;;;11.80;99.90;;;;;;5093995;28;20462;-67
2023/10/10 02:25:36;;;;;;;8.73;8.63;;;11.80;99.90;;;;;;5088899;28;20858;-67
2023/10/10 02:28:03;;;;;;;8.30;8.20;;;11.80;99.90;;;;;;5097530;28;20449;-67
2023/10/10 02:30:34;;;;;;;8.70;8.60;;;11.80;99.90;;;;;;5105117;28;20449;-66
2023/10/10 02:33:14;;;;;;;8.20;8.10;;;11.80;99.90;;;;;;5093252;28;20916;-67
2023/10/10 02:35:54;;;;;;;8.30;8.20;;;11.80;99.90;;;;;;5096688;28;20465;-66
2023/10/10 02:38:25;;;;;;;8.37;8.27;;;11.70;99.90;;;;;;5102372;28;20457;-67
2023/10/10 02:40:56;;;;;;;7.90;7.80;;;11.70;99.90;;;;;;5095709;28;20458;-68
2023/10/10 02:43:45;;;;;;;8.50;8.40;;;11.70;99.90;;;;;;5094691;28;20479;-67
2023/10/10 02:46:17;;;;;;;8.33;8.23;;;11.80;99.90;;;;;;5107269;28;20457;-67
2023/10/10 02:48:44;;;;;;;8.77;8.67;;;11.80;99.90;;;;;;5097361;28;20828;-66
2023/10/10 02:51:15;;;;;;;8.33;8.23;;;11.80;99.90;;;;;;5095692;28;20482;-67
2023/10/10 02:53:46;;;;;;;9.20;9.00;;;11.80;99.90;;;;;;5099941;28;20503;-66
2023/10/10 02:56:18;;;;;;;8.70;8.60;;;11.80;99.90;;;;;;5108839;28;20453;-66
2023/10/10 02:58:47;;;;;;;8.03;7.93;;;11.70;99.90;;;;;;5095498;28;20480;-66
2023/10/10 03:01:49;;;;;;;9.07;8.87;;;11.70;99.90;;;;;;5103446;28;21033;-66
2023/10/10 03:04:09;;;;;;;10.07;9.87;;;11.70;99.90;;;;;;5086363;28;20460;-66
2023/10/10 03:06:38;;;;;;;9.10;8.90;;;11.80;99.90;;;;;;5103070;28;20445;-67
2023/10/10 03:09:14;;;;;;;9.57;9.37;;;11.90;99.90;;;;;;5092428;28;20899;-69
2023/10/10 03:11:53;;;;;;;9.60;9.40;;;12.00;99.90;;;;;;5100759;28;20455;-67
2023/10/10 03:14:26;;;;;;;9.50;9.30;;;12.00;99.90;;;;;;5099537;28;20477;-67
2023/10/10 03:16:59;;;;;;;8.77;8.67;;;12.10;99.90;;;;;;5105677;28;20878;-68
2023/10/10 03:19:37;;;;;;;9.20;9.00;;;12.10;99.90;;;;;;5100178;28;20467;-67
2023/10/10 03:22:26;;;;;;;9.33;9.13;;;12.10;99.90;;;;;;5097128;28;20542;-66
2023/10/10 03:25:20;;;;;;;9.63;9.43;;;12.10;99.90;;;;;;5101479;28;20995;-65
2023/10/10 03:27:51;;;;;;;9.67;9.47;;;12.20;99.90;;;;;;5101861;28;20482;-66
2023/10/10 03:30:22;;;;;;;8.30;8.20;;;12.20;99.90;;;;;;5094393;28;20465;-66
2023/10/10 03:33:07;;;;;;;8.70;8.60;;;12.20;99.90;;;;;;5097464;28;20469;-67
2023/10/10 03:35:52;;;;;;;9.47;9.27;;;12.10;99.90;;;;;;5094654;28;20554;-67
2023/10/10 05:23:34;;;;;;;10.67;10.47;;;11.70;99.90;;;;;;5097324;28;20457;-68
2023/10/10 05:26:02;;;;;;;9.47;9.27;;;11.80;99.90;;;;;;5086514;28;20501;-69
2023/10/10 05:28:32;;;;;;;9.60;9.40;;;11.80;99.90;;;;;;5094115;28;20485;-67
2023/10/10 05:30:59;;;;;;;9.60;9.40;;;11.80;99.90;;;;;;5103258;28;20458;-67
2023/10/10 05:33:27;;;;;;;9.73;9.53;;;11.90;99.90;;;;;;5090564;28;20503;-69
2023/10/10 05:36:06;;;;;;;10.20;10.00;;;11.90;99.90;;;;;;5098868;28;20544;-69
2023/10/10 05:38:39;;;;;;;8.80;8.70;;;12.00;99.90;;;;;;5089574;28;20476;-69
2023/10/10 05:41:07;;;;;;;9.03;8.83;;;12.10;99.90;;;;;;5090536;28;20971;-67
2023/10/10 05:43:35;;;;;;;9.43;9.23;;;12.10;99.90;;;;;;5092320;28;20489;-69
2023/10/10 05:46:04;;;;;;;9.20;9.00;;;12.10;99.90;;;;;;5094601;28;20834;-67
2023/10/10 05:48:32;;;;;;;8.80;8.67;;;12.20;99.90;;;;;;5088019;28;20458;-68
2023/10/10 05:51:03;;;;;;;8.73;8.63;;;12.20;99.90;;;;;;5096783;28;20765;-67
2023/10/10 05:53:33;;;;;;;9.30;9.10;;;12.20;99.90;;;;;;5100675;28;20496;-68
2023/10/10 05:56:12;;;;;;;8.70;8.60;;;12.20;99.90;;;;;;5093449;28;20560;-68
2023/10/10 05:58:42;;;;;;;8.30;8.20;;;12.20;99.90;;;;;;5094184;28;20456;-69
2023/10/10 06:01:12;;;;;;;8.40;8.30;;;12.30;99.90;;;;;;5088847;28;20462;-67
2023/10/10 06:03:40;;;;;;;8.67;8.57;;;12.20;99.90;;;;;;5095275;28;20492;-67
2023/10/10 06:06:11;;;;;;;8.73;8.63;;;12.20;99.90;;;;;;5100165;28;20540;-67
2023/10/10 06:08:41;;;;;;;9.10;8.90;;;12.30;99.90;;;;;;5092348;28;20461;-68
2023/10/10 06:11:09;;;;;;;9.40;9.20;;;12.30;99.90;;;;;;5093043;28;20892;-69
2023/10/10 06:13:39;;;;;;;9.83;9.63;;;12.40;99.90;;;;;;5091834;28;20556;-67
2023/10/10 06:16:12;;;;;;;9.40;9.20;;;12.50;99.90;;;;;;5098858;28;21002;-68
2023/10/10 06:18:41;;;;;;;9.53;9.33;;;12.50;99.90;;;;;;5095224;28;20864;-67
2023/10/10 06:21:10;;;;;;;8.73;8.63;;;12.60;99.90;;;;;;5090242;28;20454;-69
2023/10/10 06:23:41;;;;;;;8.60;8.50;;;12.50;99.90;;;;;;5086144;28;20462;-68
2023/10/10 06:26:09;;;;;;;9.10;8.90;;;12.50;99.90;;;;;;5097824;28;20464;-68
2023/10/10 06:28:42;;;;;;;9.80;9.60;;;12.50;99.90;;;;;;5096126;28;21043;-69
2023/10/10 06:31:12;;;;;;;9.70;9.50;;;12.50;99.90;;;;;;5095999;28;20531;-67
2023/10/10 06:33:41;;;;;;;9.27;9.07;;;12.50;99.90;;;;;;5097756;28;20482;-68
2023/10/10 06:36:32;;;;;;;9.10;8.90;;;12.60;99.90;;;;;;5097139;28;20462;-68
2023/10/10 06:41:50;;;;;;;9.50;9.30;;;12.80;99.90;;;;;;5095449;28;20457;-69
2023/10/10 06:44:31;;;;;;;9.40;9.20;;;12.80;99.90;;;;;;5091943;28;20559;-68
2023/10/10 06:47:00;;;;;;;9.70;9.50;;;13.00;99.90;;;;;;5102738;28;20481;-68
2023/10/10 06:49:43;;;;;;;10.00;9.80;;;13.00;99.90;;;;;;5089318;28;21067;-69
2023/10/10 06:52:18;;;;;;;9.47;9.27;;;13.10;99.90;;;;;;5100924;28;20460;-68
2023/10/10 06:54:45;;;;;;;9.07;8.87;;;13.30;99.90;;;;;;5085936;28;20879;-68
2023/10/10 06:57:18;;;;;;;9.07;8.87;;;13.30;99.90;;;;;;5099834;28;20541;-69
2023/10/10 06:59:45;;;;;;;8.47;8.37;;;13.30;99.90;;;;;;5092397;28;20470;-68
2023/10/10 07:02:21;;;;;;;8.63;8.53;;;13.40;99.90;;;;;;5107104;28;20461;-68
2023/10/10 07:04:53;;;;;;;8.20;8.10;;;13.50;99.90;;;;;;5094817;28;20456;-68
2023/10/10 07:07:26;;;;;;;8.43;8.33;;;13.60;99.90;;;;;;5106742;28;20863;-68
2023/10/10 07:09:59;;;;;;;8.07;7.97;;;13.70;99.90;;;;;;5100025;28;20472;-67
2023/10/10 07:12:28;;;;;;;9.07;8.87;;;13.70;99.90;;;;;;5090733;28;20504;-68
2023/10/10 07:14:56;;;;;;;8.80;8.60;;;13.70;99.90;;;;;;5093755;28;21067;-68
2023/10/10 07:17:27;;;;;;;8.97;8.77;;;13.80;99.90;;;;;;5098661;28;20465;-68
2023/10/10 07:22:41;;;;;;;8.47;8.37;;;13.90;99.90;;;;;;5091892;28;20535;-68
2023/10/10 07:25:31;;;;;;;8.73;8.63;;;14.00;99.90;;;;;;5093956;28;20855;-68
2023/10/10 07:27:56;;;;;;;7.47;7.37;;;14.10;99.90;;;;;;5091245;28;20464;-69
2023/10/10 07:30:33;;;;;;;7.90;7.80;;;14.20;99.90;;;;;;5099715;28;20461;-69
2023/10/10 07:33:02;;;;;;;8.13;8.03;;;14.30;99.90;;;;;;5105927;28;20450;-68
2023/10/10 07:35:36;;;;;;;8.30;8.20;;;14.40;99.90;;;;;;5098733;28;20492;-68
2023/10/10 07:38:04;;;;;;;9.40;9.20;;;14.40;99.90;;;;;;5093710;28;20827;-67
2023/10/10 07:40:30;;;;;;;8.80;8.70;;;14.50;99.90;;;;;;5094901;28;20838;-69
2023/10/10 07:42:59;;;;;;;8.70;8.60;;;14.60;99.90;;;;;;5094641;28;20944;-67
2023/10/10 07:45:33;;;;;;;9.37;9.17;;;14.70;99.90;;;;;;5105167;28;20441;-68
2023/10/10 07:50:48;;;;;;;8.47;8.37;;;14.90;99.90;;;;;;5101637;28;20498;-68
2023/10/10 07:53:18;;;;;;;8.77;8.67;;;15.00;99.90;;;;;;5096644;28;20983;-68
2023/10/10 07:56:00;;;;;;;8.23;8.13;;;15.10;99.90;;;;;;5095554;28;20982;-68
2023/10/10 07:58:42;;;;;;;8.70;8.60;;;15.20;99.90;;;;;;5101661;28;20461;-68
2023/10/10 08:01:10;;;;;;;8.93;8.80;;;15.30;99.90;;;;;;5104749;28;20455;-69
2023/10/10 08:03:36;;;;;;;8.43;8.33;;;15.40;99.90;;;;;;5097731;28;20813;-68
2023/10/10 08:08:48;;;;;;;8.70;8.60;;;15.50;99.90;;;;;;5100859;27;20442;-68
2023/10/10 08:11:25;;;;;;;9.10;8.90;;;15.60;99.90;;;;;;5103467;28;20442;-67
2023/10/10 08:13:52;;;;;;;9.30;9.10;;;15.90;99.90;;;;;;5096879;28;20458;-68
2023/10/10 08:16:22;;;;;;;9.10;8.90;;;16.00;99.90;;;;;;5097736;28;20492;-69
2023/10/10 08:18:53;;;;;;;10.17;9.97;;;16.20;99.90;;;;;;5101105;28;21015;-69
2023/10/10 08:21:23;;;;;;;10.03;9.83;;;16.40;99.90;;;;;;5101083;28;20844;-69
2023/10/10 08:23:56;;;;;;;9.80;9.60;;;16.50;99.90;;;;;;5091004;28;20460;-68
2023/10/10 08:26:29;;;;;;;10.50;10.30;;;16.70;99.90;;;;;;5096851;28;20457;-68
2023/10/10 08:28:56;;;;;;;10.23;10.03;;;17.00;99.90;;;;;;5098082;28;20474;-68
2023/10/10 08:31:25;;;;;;;10.50;10.30;;;17.20;99.90;;;;;;5099242;28;20454;-69
2023/10/10 08:33:53;;;;;;;11.20;10.90;;;17.40;99.90;;;;;;5099719;28;20449;-69
2023/10/10 08:36:24;;;;;;;10.83;10.60;;;17.50;99.90;;;;;;5107900;28;20443;-69
2023/10/10 08:38:53;;;;;;;10.70;10.50;;;17.70;99.90;;;;;;5104124;28;20453;-69
2023/10/10 08:41:23;;;;;;;11.40;11.10;;;18.00;99.90;;;;;;5103444;28;20466;-69
2023/10/10 08:43:57;;;;;;;11.87;11.57;;;18.20;99.90;;;;;;5104997;28;21006;-68
2023/10/10 08:46:27;;;;;;;11.80;11.50;;;18.40;99.90;;;;;;5102001;28;20454;-68
2023/10/10 08:48:58;;;;;;;12.10;11.80;;;18.60;99.90;;;;;;5100940;28;20552;-68
2023/10/10 08:51:27;;;;;;;12.10;11.80;;;18.70;99.90;;;;;;5095687;28;20457;-68
2023/10/10 08:53:56;;;;;;;12.20;11.90;;;19.00;99.90;;;;;;5102371;28;20898;-68
2023/10/10 08:56:23;;;;;;;12.97;12.57;;;19.00;99.90;;;;;;5103129;28;20754;-68
2023/10/10 08:58:50;;;;;;;13.13;12.73;;;19.10;99.90;;;;;;5100567;28;21219;-69
2023/10/10 09:01:17;;;;;;;13.00;12.60;;;19.30;99.90;;;;;;5104141;28;20945;-69
2023/10/10 09:03:46;;;;;;;13.10;12.70;;;19.50;99.90;;;;;;5100516;28;20465;-69
2023/10/10 09:06:19;;;;;;;13.00;12.60;;;19.60;99.90;;;;;;5102757;28;20535;-68
2023/10/10 09:08:49;;;;;;;12.93;12.53;;;19.90;99.90;;;;;;5098100;28;20511;-68
2023/10/10 09:11:19;;;;;;;13.10;12.70;;;20.10;99.90;;;;;;5104072;28;21063;-68
2023/10/10 09:13:51;;;;;;;13.20;12.80;;;20.30;99.90;;;;;;5106465;28;20557;-68
2023/10/10 09:16:21;;;;;;;13.23;12.83;;;20.50;99.90;;;;;;5092626;28;20608;-68
2023/10/10 09:19:08;;;;;;;13.03;12.63;;;20.60;99.90;;;;;;5104113;28;20875;-68
2023/10/10 09:21:50;;;;;;;13.20;12.80;;;20.80;99.90;;;;;;5107302;28;20527;-68
2023/10/10 09:24:28;;;;;;;13.30;12.90;;;20.80;99.90;;;;;;5100399;28;20522;-68
2023/10/10 09:26:59;;;;;;;13.60;13.20;;;20.90;99.90;;;;;;5094832;28;20462;-68
2023/10/10 09:29:34;;;;;;;13.40;13.00;;;21.10;99.90;;;;;;5092060;28;20540;-68
2023/10/10 09:32:05;;;;;;;13.50;13.10;;;21.40;99.90;;;;;;5101093;28;20452;-68
2023/10/10 09:34:40;;;;;;;13.03;12.63;;;21.50;99.90;;;;;;5101471;28;20488;-68
2023/10/10 09:37:11;;;;;;;13.30;12.90;;;21.40;99.90;;;;;;5106622;27;20910;-69
2023/10/10 09:39:41;;;;;;;12.90;12.50;;;21.50;99.90;;;;;;5089268;28;20557;-68
2023/10/10 09:42:27;;;;;;;12.70;12.30;;;21.60;99.90;;;;;;5099745;28;20473;-70
2023/10/10 09:45:26;;;;;;;13.30;12.90;;;21.50;99.90;;;;;;5102854;28;20457;-70
2023/10/10 09:47:56;;;;;;;12.40;12.10;;;21.60;99.90;;;;;;5091731;28;20870;-68
2023/10/10 09:50:37;;;;;;;13.00;12.60;;;21.60;99.90;;;;;;5093686;28;20469;-68
2023/10/10 09:53:19;;;;;;;13.10;12.70;;;21.50;99.90;;;;;;5088097;28;20516;-68
2023/10/10 09:55:53;;;;;;;13.20;12.80;;;21.40;99.90;;;;;;5096454;28;20635;-68
2023/10/10 09:58:27;;;;;;;13.20;12.80;;;21.80;99.90;;;;;;5099414;28;20461;-68
2023/10/10 10:01:04;;;;;;;12.80;12.40;;;22.20;99.90;;;;;;5100764;28;20856;-68
2023/10/10 10:03:49;;;;;;;12.50;12.20;;;22.30;99.90;;;;;;5097776;28;20458;-68
2023/10/10 10:06:35;;;;;;;12.90;12.50;;;22.60;99.90;;;;;;5091151;28;20556;-68
2023/10/10 10:09:31;;;;;;;12.80;12.40;;;22.80;99.90;;;;;;5101223;28;20464;-69
2023/10/10 10:12:19;;;;;;;13.20;12.80;;;23.00;99.90;;;;;;5102367;28;20529;-68
2023/10/10 10:14:56;;;;;;;12.80;12.40;;;23.40;99.90;;;;;;5105310;28;20962;-70
2023/10/10 10:17:45;;;;;;;12.60;12.30;;;23.50;99.90;;;;;;5094250;28;20472;-68
2023/10/10 10:20:19;;;;;;;13.20;12.80;;;23.50;99.90;;;;;;5095137;28;20483;-68
2023/10/10 10:22:48;;;;;;;13.17;12.77;;;23.70;99.90;;;;;;5096693;28;20483;-68
2023/10/10 10:25:25;;;;;;;13.03;12.63;;;24.20;99.90;;;;;;5091476;28;20470;-68
2023/10/10 10:28:00;;;;;;;13.20;12.80;;;24.50;99.90;;;;;;5098870;28;20544;-69
2023/10/10 10:30:46;;;;;;;12.90;12.50;;;24.80;99.90;;;;;;5101882;28;20453;-68
2023/10/10 10:33:14;;;;;;;13.00;12.60;;;25.00;99.90;;;;;;5091470;28;20476;-68
2023/10/10 10:36:15;;;;;;;13.60;13.20;;;25.10;99.90;;;;;;5098611;28;20856;-68
2023/10/10 10:39:18;;;;;;;13.87;13.47;;;25.30;99.90;;;;;;5105451;28;20463;-68
2023/10/10 10:41:48;;;;;;;14.10;13.70;;;25.30;99.90;;;;;;5096815;28;20473;-67
2023/10/10 10:44:28;;;;;;;14.63;14.13;;;25.40;99.90;;;;;;5105443;28;20572;-67
2023/10/10 10:46:58;;;;;;;14.60;14.10;;;25.20;99.90;;;;;;5093645;28;20468;-70
2023/10/10 10:49:28;;;;;;;14.80;14.30;;;25.50;99.90;;;;;;5097028;28;20501;-67
2023/10/10 10:54:36;;;;;;;14.80;14.30;;;25.70;99.90;;;;;;5100072;28;20460;-70
2023/10/10 10:57:03;;;;;;;14.90;14.40;;;25.70;99.90;;;;;;5097665;28;21026;-67
2023/10/10 10:59:38;;;;;;;15.57;15.07;;;25.90;99.90;;;;;;5092780;28;20823;-67
2023/10/10 11:02:15;;;;;;;14.30;13.90;;;26.10;99.90;;;;;;5097852;28;20449;-68
2023/10/10 11:04:49;;;;;;;15.10;14.60;;;26.20;99.90;;;;;;5097125;28;20461;-66
2023/10/10 11:07:26;;;;;;;15.10;14.60;;;26.60;99.90;;;;;;5090697;28;20469;-70
2023/10/10 11:09:53;;;;;;;15.50;15.00;;;27.00;99.90;;;;;;5098610;28;20445;-67
2023/10/10 11:12:31;;;;;;;14.93;14.47;;;26.90;99.90;;;;;;5099055;28;20469;-67
2023/10/10 11:15:04;;;;;;;15.27;14.77;;;27.00;99.90;;;;;;5103319;28;20882;-70
2023/10/10 11:17:38;;;;;;;14.93;14.53;;;26.80;99.90;;;;;;5097001;28;21023;-69
2023/10/10 11:20:26;;;;;;;14.70;14.30;;;27.00;99.90;;;;;;5094767;28;20851;-67
2023/10/10 11:22:55;;;;;;;14.70;14.30;;;27.10;99.90;;;;;;5092177;28;20480;-66
2023/10/10 11:25:27;;;;;;;14.70;14.30;;;27.40;99.90;;;;;;5094743;28;20466;-67
2023/10/10 11:28:03;;;;;;;14.10;13.70;;;27.20;99.90;;;;;;5094229;28;20541;-67
2023/10/10 11:30:30;;;;;;;13.97;13.57;;;26.90;99.90;;;;;;5103048;28;20490;-67
2023/10/10 11:33:16;;;;;;;14.10;13.70;;;26.80;99.90;;;;;;5097763;28;20462;-67
2023/10/10 11:35:46;;;;;;;14.40;14.00;;;26.70;99.90;;;;;;5095873;28;20567;-67
2023/10/10 11:38:33;;;;;;;15.10;14.70;;;26.90;99.90;;;;;;5103070;28;20446;-67
2023/10/10 11:41:08;;;;;;;14.77;14.37;;;27.10;99.90;;;;;;5100535;28;20454;-67
2023/10/10 11:43:38;;;;;;;15.20;14.70;;;27.30;99.90;;;;;;5098215;28;20521;-68
2023/10/10 11:46:07;;;;;;;14.63;14.23;;;27.40;99.90;;;;;;5104991;28;20544;-67
2023/10/10 11:48:44;;;;;;;14.87;14.47;;;27.40;99.90;;;;;;5098114;28;20462;-67
2023/10/10 11:51:12;;;;;;;14.60;14.20;;;27.00;99.90;;;;;;5102219;28;20674;-69
2023/10/10 11:53:38;;;;;;;13.67;13.27;;;26.90;99.90;;;;;;5105167;28;20453;-66
2023/10/10 11:56:11;;;;;;;13.90;13.50;;;27.10;99.90;;;;;;5097218;28;20497;-67
2023/10/10 11:58:38;;;;;;;14.10;13.70;;;27.10;99.90;;;;;;5109778;28;20473;-67
2023/10/10 12:01:06;;;;;;;14.27;13.87;;;27.00;99.90;;;;;;5109382;28;20894;-69
2023/10/10 12:03:41;;;;;;;14.60;14.20;;;27.10;99.90;;;;;;5094959;28;20516;-66
2023/10/10 12:06:14;;;;;;;14.33;13.93;;;27.30;99.90;;;;;;5099351;28;20449;-67
2023/10/10 12:08:44;;;;;;;14.43;14.03;;;27.30;99.90;;;;;;5095302;28;20465;-68
2023/10/10 12:11:12;;;;;;;14.27;13.87;;;27.70;99.90;;;;;;5099822;28;20462;-65
2023/10/10 12:13:44;;;;;;;13.93;13.53;;;28.20;99.90;;;;;;5101278;28;20816;-68
2023/10/10 12:16:11;;;;;;;14.73;14.33;;;28.40;99.90;;;;;;5106992;28;20844;-67
2023/10/10 12:18:44;;;;;;;14.20;13.80;;;28.10;99.90;;;;;;5098614;28;20475;-66
2023/10/10 12:21:18;;;;;;;14.00;13.60;;;28.20;99.90;;;;;;5103127;28;20507;-67
2023/10/10 12:23:47;;;;;;;14.60;14.20;;;28.00;99.90;;;;;;5106336;28;20498;-66
2023/10/10 12:26:14;;;;;;;14.20;13.80;;;27.60;99.90;;;;;;5101938;28;20461;-67
2023/10/10 12:28:43;;;;;;;14.80;14.40;;;28.30;99.90;;;;;;5106610;28;20904;-67
2023/10/10 12:31:15;;;;;;;14.10;13.70;;;28.80;99.90;;;;;;5108694;28;20806;-67
2023/10/10 12:33:45;;;;;;;14.43;14.03;;;28.80;99.90;;;;;;5098376;28;20555;-67
2023/10/10 12:36:14;;;;;;;15.37;14.87;;;29.10;99.90;;;;;;5106055;28;20481;-66
2023/10/10 12:38:44;;;;;;;14.53;14.13;;;29.70;99.90;;;;;;5107584;28;20449;-67
2023/10/10 12:41:11;;;;;;;13.80;13.40;;;29.40;99.90;;;;;;5100152;28;20456;-67
2023/10/10 12:43:39;;;;;;;14.27;13.87;;;29.20;99.90;;;;;;5092670;28;20489;-67
2023/10/10 12:46:07;;;;;;;14.97;14.57;;;29.20;99.90;;;;;;5105341;28;20937;-66
2023/10/10 12:48:39;;;;;;;14.00;13.60;;;29.20;99.90;;;;;;5109091;28;20506;-67
2023/10/10 12:51:09;;;;;;;14.27;13.87;;;29.30;99.90;;;;;;5108233;28;20620;-67
2023/10/10 12:53:40;;;;;;;14.80;14.40;;;29.30;99.50;;;;;;5101677;28;20497;-64
2023/10/10 12:56:11;;;;;;;14.20;13.80;;;29.50;99.00;;;;;;5107559;28;20473;-64
2023/10/10 12:58:43;;;;;;;13.70;13.30;;;29.70;98.00;;;;;;5098921;28;20550;-66
2023/10/10 13:01:12;;;;;;;13.20;12.90;;;29.20;98.10;;;;;;5102813;28;20445;-67
2023/10/10 13:03:39;;;;;;;14.10;13.70;;;29.60;98.20;;;;;;5101173;28;20521;-66
2023/10/10 13:06:06;;;;;;;15.57;15.07;;;29.00;98.10;;;;;;5105655;28;20548;-66
2023/10/10 13:08:39;;;;;;;14.27;13.87;;;29.30;98.10;;;;;;5104436;28;20442;-66
2023/10/10 13:11:14;;;;;;;13.53;13.13;;;29.50;97.70;;;;;;5101123;28;20458;-67
2023/10/10 13:13:46;;;;;;;13.70;13.30;;;29.80;97.10;;;;;;5094695;28;20465;-67
2023/10/10 13:16:27;;;;;;;14.27;13.87;;;29.50;95.90;;;;;;5096750;28;20496;-66
2023/10/10 13:18:56;;;;;;;13.80;13.40;;;29.40;96.20;;;;;;5103642;28;20962;-67
2023/10/10 13:21:25;;;;;;;14.37;13.97;;;28.90;96.80;;;;;;5106823;28;20454;-66
2023/10/10 13:23:53;;;;;;;12.80;12.50;;;28.70;98.00;;;;;;5102249;28;20466;-67
2023/10/10 13:26:22;;;;;;;13.67;13.27;;;29.00;97.40;;;;;;5103667;28;20454;-66
2023/10/10 13:28:51;;;;;;;13.67;13.27;;;28.80;96.90;;;;;;5100524;28;20476;-67
2023/10/10 13:31:24;;;;;;;14.60;14.20;;;29.00;97.30;;;;;;5099117;28;20442;-66
2023/10/10 13:33:51;;;;;;;14.00;13.60;;;28.90;97.60;;;;;;5093348;28;20482;-67
2023/10/10 13:36:18;;;;;;;13.47;13.07;;;28.80;98.40;;;;;;5099037;28;20492;-68
2023/10/10 13:38:47;;;;;;;14.20;13.80;;;28.90;98.50;;;;;;5102068;28;20935;-66
2023/10/10 13:41:16;;;;;;;14.67;14.27;;;28.80;98.60;;;;;;5090846;28;20948;-67
2023/10/10 13:43:46;;;;;;;13.67;13.27;;;28.90;98.70;;;;;;5104317;28;20568;-67
2023/10/10 13:46:13;;;;;;;14.93;14.53;;;29.00;99.20;;;;;;5085208;28;20543;-67
2023/10/10 13:48:41;;;;;;;13.73;13.33;;;29.00;99.30;;;;;;5096012;28;20548;-68
2023/10/10 13:51:09;;;;;;;14.63;14.23;;;29.20;99.40;;;;;;5102769;28;20470;-67
2023/10/10 13:53:39;;;;;;;14.63;14.23;;;29.40;98.60;;;;;;5091510;28;20573;-66
2023/10/10 13:56:06;;;;;;;14.20;13.80;;;29.00;99.70;;;;;;5093192;28;20482;-66
2023/10/10 13:58:34;;;;;;;14.73;14.33;;;28.80;99.60;;;;;;5095365;28;20972;-67
2023/10/10 14:01:16;;;;;;;14.47;14.07;;;28.80;99.60;;;;;;5105517;28;20451;-67
2023/10/10 14:03:46;;;;;;;14.77;14.37;;;28.70;99.80;;;;;;5105270;28;20958;-67
2023/10/10 14:06:16;;;;;;;14.50;14.10;;;29.00;99.90;;;;;;5086939;28;20496;-67
2023/10/10 14:08:44;;;;;;;14.47;14.07;;;29.00;99.90;;;;;;5101805;28;20449;-67
2023/10/10 14:11:12;;;;;;;14.53;14.13;;;28.90;99.90;;;;;;5094172;28;20462;-68
2023/10/10 14:13:39;;;;;;;14.63;14.23;;;29.00;99.90;;;;;;5104224;28;20621;-67
2023/10/10 14:16:07;;;;;;;14.77;14.37;;;29.20;99.90;;;;;;5099117;28;20477;-67
2023/10/10 14:18:42;;;;;;;14.40;14.00;;;29.30;99.80;;;;;;5092265;28;20457;-67
2023/10/10 14:21:10;;;;;;;14.67;14.27;;;29.50;99.40;;;;;;5097403;28;20449;-67
2023/10/10 14:23:39;;;;;;;14.30;13.90;;;29.00;99.90;;;;;;5094643;28;20581;-68
2023/10/10 14:26:13;;;;;;;14.87;14.47;;;29.20;99.90;;;;;;5094582;28;20469;-66
2023/10/10 14:28:41;;;;;;;13.77;13.37;;;29.50;99.60;;;;;;5102229;28;20496;-66
2023/10/10 14:31:12;;;;;;;14.30;13.90;;;29.00;99.90;;;;;;5101317;28;20863;-67
2023/10/10 14:33:39;;;;;;;14.63;14.23;;;29.40;99.90;;;;;;5098277;28;20458;-67
2023/10/10 14:36:12;;;;;;;15.00;14.50;;;29.60;99.90;;;;;;5095031;28;20814;-67
2023/10/10 14:38:40;;;;;;;15.07;14.57;;;29.90;99.90;;;;;;5100112;28;21637;-67
2023/10/10 14:41:07;;;;;;;14.23;13.83;;;29.50;99.90;;;;;;5099727;28;20540;-67
2023/10/10 14:43:35;;;;;;;15.17;14.67;;;29.80;99.90;;;;;;5094188;28;20999;-68
2023/10/10 14:46:02;;;;;;;15.07;14.57;;;30.10;99.70;;;;;;5094733;28;20468;-67
2023/10/10 14:48:33;;;;;;;13.97;13.57;;;29.80;99.80;;;;;;5096629;28;21061;-67
2023/10/10 14:51:05;;;;;;;14.30;13.90;;;29.70;99.70;;;;;;5098709;28;20896;-67
2023/10/10 14:53:34;;;;;;;15.00;14.50;;;29.40;99.90;;;;;;5098264;28;20461;-67
2023/10/10 14:56:05;;;;;;;14.70;14.30;;;29.50;99.90;;;;;;5097428;28;20503;-67
2023/10/10 14:58:33;;;;;;;14.97;14.50;;;29.50;99.90;;;;;;5095422;28;20517;-68
2023/10/10 15:01:02;;;;;;;14.57;14.17;;;29.00;99.90;;;;;;5094595;28;20462;-67